Terminal Aerodrome Forecast
Issued by NWS

Home | Current Version | Previous Version | Text Only | Print | Product List | Glossary On
Versions: 1 2 3 4 5 6 7 8 9 10 11 12 13 14 15 16 17 18 19 20 21 22 23 24 25
281
FTUS42 KRAH 081143
TAFINT
TAF
KINT 081143Z 0812/0912 14005KT P6SM BKN250
     FM081800 20008KT P6SM OVC050
      TEMPO 0819/0823 4SM -SHRA BR OVC025
     FM090200 27006KT P6SM BKN060=

USA.gov is the U.S. government's official web portal to all federal, state and local government web resources and services.